sensor_id;sensor_type;location;lat;lon;timestamp;P1;durP1;ratioP1;P2;durP2;ratioP2
19049;SDS011;9657;45.940;12.840;2023-01-20T00:00:20;1.93;;;1.73;;
19049;SDS011;9657;45.940;12.840;2023-01-20T00:02:47;2.23;;;2.03;;
19049;SDS011;9657;45.940;12.840;2023-01-20T00:05:14;3.40;;;1.93;;
19049;SDS011;9657;45.940;12.840;2023-01-20T00:07:43;2.03;;;1.83;;
19049;SDS011;9657;45.940;12.840;2023-01-20T00:10:10;2.03;;;1.70;;
19049;SDS011;9657;45.940;12.840;2023-01-20T00:12:37;2.70;;;1.83;;
19049;SDS011;9657;45.940;12.840;2023-01-20T00:15:04;2.83;;;2.03;;
19049;SDS011;9657;45.940;12.840;2023-01-20T00:17:33;3.73;;;2.00;;
19049;SDS011;9657;45.940;12.840;2023-01-20T00:20:00;3.07;;;1.83;;
19049;SDS011;9657;45.940;12.840;2023-01-20T00:22:28;2.70;;;1.83;;
19049;SDS011;9657;45.940;12.840;2023-01-20T00:24:56;2.87;;;2.07;;
19049;SDS011;9657;45.940;12.840;2023-01-20T00:27:23;2.97;;;1.80;;
19049;SDS011;9657;45.940;12.840;2023-01-20T00:29:50;2.67;;;2.00;;
19049;SDS011;9657;45.940;12.840;2023-01-20T00:32:17;2.70;;;1.90;;
19049;SDS011;9657;45.940;12.840;2023-01-20T00:34:44;3.10;;;1.70;;
19049;SDS011;9657;45.940;12.840;2023-01-20T00:37:11;2.27;;;1.87;;
19049;SDS011;9657;45.940;12.840;2023-01-20T00:39:38;3.77;;;2.07;;
19049;SDS011;9657;45.940;12.840;2023-01-20T00:42:07;2.07;;;1.87;;
19049;SDS011;9657;45.940;12.840;2023-01-20T00:44:34;5.17;;;2.23;;
19049;SDS011;9657;45.940;12.840;2023-01-20T00:47:01;2.23;;;1.70;;
19049;SDS011;9657;45.940;12.840;2023-01-20T00:49:28;3.43;;;1.97;;
19049;SDS011;9657;45.940;12.840;2023-01-20T00:51:55;3.47;;;1.67;;
19049;SDS011;9657;45.940;12.840;2023-01-20T00:54:22;2.40;;;1.60;;
19049;SDS011;9657;45.940;12.840;2023-01-20T00:56:49;2.77;;;1.73;;
19049;SDS011;9657;45.940;12.840;2023-01-20T00:59:17;1.80;;;1.70;;
19049;SDS011;9657;45.940;12.840;2023-01-20T01:01:44;5.83;;;2.30;;
19049;SDS011;9657;45.940;12.840;2023-01-20T01:04:11;3.47;;;1.50;;
19049;SDS011;9657;45.940;12.840;2023-01-20T01:06:38;2.20;;;1.30;;
19049;SDS011;9657;45.940;12.840;2023-01-20T01:09:05;1.70;;;1.60;;
19049;SDS011;9657;45.940;12.840;2023-01-20T01:11:32;1.70;;;1.60;;
19049;SDS011;9657;45.940;12.840;2023-01-20T01:13:59;1.77;;;1.60;;
19049;SDS011;9657;45.940;12.840;2023-01-20T01:16:27;3.77;;;1.50;;
19049;SDS011;9657;45.940;12.840;2023-01-20T01:18:54;2.40;;;1.70;;
19049;SDS011;9657;45.940;12.840;2023-01-20T01:21:21;2.07;;;1.57;;
19049;SDS011;9657;45.940;12.840;2023-01-20T01:23:48;1.67;;;1.57;;
19049;SDS011;9657;45.940;12.840;2023-01-20T01:26:17;1.83;;;1.53;;
19049;SDS011;9657;45.940;12.840;2023-01-20T01:28:46;3.23;;;1.43;;
19049;SDS011;9657;45.940;12.840;2023-01-20T01:31:14;2.20;;;1.53;;
19049;SDS011;9657;45.940;12.840;2023-01-20T01:33:44;2.20;;;1.80;;
19049;SDS011;9657;45.940;12.840;2023-01-20T01:36:12;2.10;;;1.70;;
19049;SDS011;9657;45.940;12.840;2023-01-20T01:38:40;2.80;;;1.80;;
19049;SDS011;9657;45.940;12.840;2023-01-20T01:41:08;1.70;;;1.60;;
19049;SDS011;9657;45.940;12.840;2023-01-20T01:43:36;1.60;;;1.50;;
19049;SDS011;9657;45.940;12.840;2023-01-20T01:46:04;2.17;;;1.97;;
19049;SDS011;9657;45.940;12.840;2023-01-20T01:48:32;2.40;;;1.90;;
19049;SDS011;9657;45.940;12.840;2023-01-20T01:51:03;2.73;;;1.80;;
19049;SDS011;9657;45.940;12.840;2023-01-20T01:53:37;2.00;;;1.80;;
19049;SDS011;9657;45.940;12.840;2023-01-20T01:56:07;2.17;;;2.00;;
19049;SDS011;9657;45.940;12.840;2023-01-20T01:58:36;1.77;;;1.67;;
19049;SDS011;9657;45.940;12.840;2023-01-20T02:03:42;2.90;;;1.90;;
19049;SDS011;9657;45.940;12.840;2023-01-20T02:06:16;3.40;;;2.10;;
19049;SDS011;9657;45.940;12.840;2023-01-20T02:08:45;1.83;;;1.60;;
19049;SDS011;9657;45.940;12.840;2023-01-20T02:11:12;3.57;;;1.80;;
19049;SDS011;9657;45.940;12.840;2023-01-20T02:13:39;2.30;;;2.10;;
19049;SDS011;9657;45.940;12.840;2023-01-20T02:16:08;2.70;;;1.90;;
19049;SDS011;9657;45.940;12.840;2023-01-20T02:18:45;2.03;;;1.87;;
19049;SDS011;9657;45.940;12.840;2023-01-20T02:21:43;2.47;;;1.73;;
19049;SDS011;9657;45.940;12.840;2023-01-20T02:24:38;2.30;;;1.80;;
19049;SDS011;9657;45.940;12.840;2023-01-20T02:30:42;2.07;;;1.87;;
19049;SDS011;9657;45.940;12.840;2023-01-20T02:33:26;2.90;;;1.80;;
19049;SDS011;9657;45.940;12.840;2023-01-20T02:35:56;2.30;;;1.87;;
19049;SDS011;9657;45.940;12.840;2023-01-20T02:38:29;1.93;;;1.70;;
19049;SDS011;9657;45.940;12.840;2023-01-20T02:41:06;2.40;;;1.70;;
19049;SDS011;9657;45.940;12.840;2023-01-20T02:43:37;2.53;;;1.90;;
19049;SDS011;9657;45.940;12.840;2023-01-20T02:46:13;3.70;;;2.10;;
19049;SDS011;9657;45.940;12.840;2023-01-20T02:48:48;1.43;;;1.33;;
19049;SDS011;9657;45.940;12.840;2023-01-20T02:51:19;1.77;;;1.63;;
19049;SDS011;9657;45.940;12.840;2023-01-20T02:53:51;1.90;;;1.60;;
19049;SDS011;9657;45.940;12.840;2023-01-20T02:56:21;4.00;;;1.57;;
19049;SDS011;9657;45.940;12.840;2023-01-20T02:58:53;1.60;;;1.50;;
19049;SDS011;9657;45.940;12.840;2023-01-20T03:01:25;1.80;;;1.43;;
19049;SDS011;9657;45.940;12.840;2023-01-20T03:03:59;2.17;;;1.77;;
19049;SDS011;9657;45.940;12.840;2023-01-20T03:06:30;1.93;;;1.73;;
19049;SDS011;9657;45.940;12.840;2023-01-20T03:09:01;2.00;;;1.73;;
19049;SDS011;9657;45.940;12.840;2023-01-20T03:11:32;2.00;;;1.80;;
19049;SDS011;9657;45.940;12.840;2023-01-20T03:14:02;1.63;;;1.47;;
19049;SDS011;9657;45.940;12.840;2023-01-20T03:16:31;2.53;;;1.83;;
19049;SDS011;9657;45.940;12.840;2023-01-20T03:19:00;2.30;;;1.73;;
19049;SDS011;9657;45.940;12.840;2023-01-20T03:21:28;2.03;;;1.37;;
19049;SDS011;9657;45.940;12.840;2023-01-20T03:23:56;3.27;;;2.00;;
19049;SDS011;9657;45.940;12.840;2023-01-20T03:26:26;1.90;;;1.57;;
19049;SDS011;9657;45.940;12.840;2023-01-20T03:28:54;1.53;;;1.40;;
19049;SDS011;9657;45.940;12.840;2023-01-20T03:31:23;2.50;;;1.60;;
19049;SDS011;9657;45.940;12.840;2023-01-20T03:33:54;1.57;;;1.47;;
19049;SDS011;9657;45.940;12.840;2023-01-20T03:36:25;1.73;;;1.60;;
19049;SDS011;9657;45.940;12.840;2023-01-20T03:38:54;2.13;;;1.70;;
19049;SDS011;9657;45.940;12.840;2023-01-20T03:41:24;2.90;;;1.90;;
19049;SDS011;9657;45.940;12.840;2023-01-20T03:44:02;3.10;;;2.50;;
19049;SDS011;9657;45.940;12.840;2023-01-20T03:46:39;2.77;;;1.93;;
19049;SDS011;9657;45.940;12.840;2023-01-20T03:49:12;1.90;;;1.53;;
19049;SDS011;9657;45.940;12.840;2023-01-20T03:51:49;1.60;;;1.50;;
19049;SDS011;9657;45.940;12.840;2023-01-20T03:54:23;1.70;;;1.53;;
19049;SDS011;9657;45.940;12.840;2023-01-20T03:56:54;1.57;;;1.47;;
19049;SDS011;9657;45.940;12.840;2023-01-20T03:59:28;1.60;;;1.50;;
19049;SDS011;9657;45.940;12.840;2023-01-20T04:01:57;1.90;;;1.70;;
19049;SDS011;9657;45.940;12.840;2023-01-20T04:04:30;1.97;;;1.77;;
19049;SDS011;9657;45.940;12.840;2023-01-20T04:07:02;1.60;;;1.50;;
19049;SDS011;9657;45.940;12.840;2023-01-20T04:09:30;2.00;;;1.70;;
19049;SDS011;9657;45.940;12.840;2023-01-20T04:12:00;1.70;;;1.60;;
19049;SDS011;9657;45.940;12.840;2023-01-20T04:14:28;3.13;;;1.83;;
19049;SDS011;9657;45.940;12.840;2023-01-20T04:16:55;1.30;;;1.20;;
19049;SDS011;9657;45.940;12.840;2023-01-20T04:19:24;1.83;;;1.60;;
19049;SDS011;9657;45.940;12.840;2023-01-20T04:21:52;1.93;;;1.70;;
19049;SDS011;9657;45.940;12.840;2023-01-20T04:24:27;1.60;;;1.50;;
19049;SDS011;9657;45.940;12.840;2023-01-20T04:26:59;2.33;;;1.80;;
19049;SDS011;9657;45.940;12.840;2023-01-20T04:29:26;2.40;;;1.40;;
19049;SDS011;9657;45.940;12.840;2023-01-20T04:31:56;1.90;;;1.67;;
19049;SDS011;9657;45.940;12.840;2023-01-20T04:34:24;1.87;;;1.50;;
19049;SDS011;9657;45.940;12.840;2023-01-20T04:36:51;1.90;;;1.80;;
19049;SDS011;9657;45.940;12.840;2023-01-20T04:39:18;2.27;;;1.63;;
19049;SDS011;9657;45.940;12.840;2023-01-20T04:41:47;2.27;;;1.60;;
19049;SDS011;9657;45.940;12.840;2023-01-20T04:44:14;1.53;;;1.33;;
19049;SDS011;9657;45.940;12.840;2023-01-20T04:46:41;1.53;;;1.43;;
19049;SDS011;9657;45.940;12.840;2023-01-20T04:49:09;2.20;;;1.30;;
19049;SDS011;9657;45.940;12.840;2023-01-20T04:51:36;2.57;;;1.63;;
19049;SDS011;9657;45.940;12.840;2023-01-20T04:54:03;4.00;;;1.40;;
19049;SDS011;9657;45.940;12.840;2023-01-20T04:56:30;1.87;;;1.50;;
19049;SDS011;9657;45.940;12.840;2023-01-20T04:58:59;1.53;;;1.43;;
19049;SDS011;9657;45.940;12.840;2023-01-20T05:01:26;1.87;;;1.67;;
19049;SDS011;9657;45.940;12.840;2023-01-20T05:03:53;2.10;;;1.43;;
19049;SDS011;9657;45.940;12.840;2023-01-20T05:06:20;1.93;;;1.80;;
19049;SDS011;9657;45.940;12.840;2023-01-20T05:08:47;2.20;;;1.37;;
19049;SDS011;9657;45.940;12.840;2023-01-20T05:11:14;1.77;;;1.50;;
19049;SDS011;9657;45.940;12.840;2023-01-20T05:13:41;1.60;;;1.33;;
19049;SDS011;9657;45.940;12.840;2023-01-20T05:16:09;1.60;;;1.27;;
19049;SDS011;9657;45.940;12.840;2023-01-20T05:18:36;1.90;;;1.50;;
19049;SDS011;9657;45.940;12.840;2023-01-20T05:21:04;1.40;;;1.30;;
19049;SDS011;9657;45.940;12.840;2023-01-20T05:23:32;1.40;;;1.30;;
19049;SDS011;9657;45.940;12.840;2023-01-20T05:25:59;1.50;;;1.40;;
19049;SDS011;9657;45.940;12.840;2023-01-20T05:28:26;1.40;;;1.30;;
19049;SDS011;9657;45.940;12.840;2023-01-20T05:30:53;1.20;;;1.10;;
19049;SDS011;9657;45.940;12.840;2023-01-20T05:33:22;1.90;;;1.20;;
19049;SDS011;9657;45.940;12.840;2023-01-20T05:35:49;2.83;;;1.40;;
19049;SDS011;9657;45.940;12.840;2023-01-20T05:38:16;1.90;;;1.50;;
19049;SDS011;9657;45.940;12.840;2023-01-20T05:40:43;1.57;;;1.30;;
19049;SDS011;9657;45.940;12.840;2023-01-20T05:43:10;1.60;;;1.50;;
19049;SDS011;9657;45.940;12.840;2023-01-20T05:45:37;2.90;;;1.57;;
19049;SDS011;9657;45.940;12.840;2023-01-20T05:48:04;1.30;;;1.20;;
19049;SDS011;9657;45.940;12.840;2023-01-20T05:50:32;1.50;;;1.40;;
19049;SDS011;9657;45.940;12.840;2023-01-20T05:52:59;1.57;;;1.47;;
19049;SDS011;9657;45.940;12.840;2023-01-20T05:55:26;1.53;;;1.43;;
19049;SDS011;9657;45.940;12.840;2023-01-20T05:57:53;1.63;;;1.53;;
19049;SDS011;9657;45.940;12.840;2023-01-20T06:00:21;1.50;;;1.40;;
19049;SDS011;9657;45.940;12.840;2023-01-20T06:02:48;1.40;;;1.30;;
19049;SDS011;9657;45.940;12.840;2023-01-20T06:05:15;1.50;;;1.40;;
19049;SDS011;9657;45.940;12.840;2023-01-20T06:07:44;1.40;;;1.30;;
19049;SDS011;9657;45.940;12.840;2023-01-20T06:10:11;1.57;;;1.47;;
19049;SDS011;9657;45.940;12.840;2023-01-20T06:12:38;1.30;;;1.20;;
19049;SDS011;9657;45.940;12.840;2023-01-20T06:15:05;1.67;;;1.37;;
19049;SDS011;9657;45.940;12.840;2023-01-20T06:17:33;2.13;;;1.73;;
19049;SDS011;9657;45.940;12.840;2023-01-20T06:20:00;1.60;;;1.40;;
19049;SDS011;9657;45.940;12.840;2023-01-20T06:22:28;1.50;;;1.20;;
19049;SDS011;9657;45.940;12.840;2023-01-20T06:24:56;1.57;;;1.47;;
19049;SDS011;9657;45.940;12.840;2023-01-20T06:27:23;1.27;;;1.17;;
19049;SDS011;9657;45.940;12.840;2023-01-20T06:29:50;1.93;;;1.57;;
19049;SDS011;9657;45.940;12.840;2023-01-20T06:32:17;1.50;;;1.40;;
19049;SDS011;9657;45.940;12.840;2023-01-20T06:34:44;1.30;;;1.10;;
19049;SDS011;9657;45.940;12.840;2023-01-20T06:37:11;1.30;;;1.17;;
19049;SDS011;9657;45.940;12.840;2023-01-20T06:39:38;1.47;;;1.33;;
19049;SDS011;9657;45.940;12.840;2023-01-20T06:42:07;1.33;;;1.20;;
19049;SDS011;9657;45.940;12.840;2023-01-20T06:44:34;1.53;;;1.43;;
19049;SDS011;9657;45.940;12.840;2023-01-20T06:47:01;1.50;;;1.40;;
19049;SDS011;9657;45.940;12.840;2023-01-20T06:49:28;1.70;;;1.47;;
19049;SDS011;9657;45.940;12.840;2023-01-20T06:51:57;1.17;;;1.07;;
19049;SDS011;9657;45.940;12.840;2023-01-20T06:54:24;1.87;;;1.20;;
19049;SDS011;9657;45.940;12.840;2023-01-20T06:56:51;1.50;;;1.40;;
19049;SDS011;9657;45.940;12.840;2023-01-20T06:59:20;1.40;;;1.30;;
19049;SDS011;9657;45.940;12.840;2023-01-20T07:01:47;2.50;;;1.30;;
19049;SDS011;9657;45.940;12.840;2023-01-20T07:04:14;1.43;;;1.33;;
19049;SDS011;9657;45.940;12.840;2023-01-20T07:06:41;2.27;;;1.43;;
19049;SDS011;9657;45.940;12.840;2023-01-20T07:09:09;1.53;;;1.37;;
19049;SDS011;9657;45.940;12.840;2023-01-20T07:11:38;1.87;;;1.67;;
19049;SDS011;9657;45.940;12.840;2023-01-20T07:14:05;1.20;;;1.10;;
19049;SDS011;9657;45.940;12.840;2023-01-20T07:16:34;2.40;;;1.10;;
19049;SDS011;9657;45.940;12.840;2023-01-20T07:19:02;1.83;;;1.53;;
19049;SDS011;9657;45.940;12.840;2023-01-20T07:21:29;1.60;;;1.50;;
19049;SDS011;9657;45.940;12.840;2023-01-20T07:23:58;2.37;;;1.40;;
19049;SDS011;9657;45.940;12.840;2023-01-20T07:26:25;1.90;;;1.47;;
19049;SDS011;9657;45.940;12.840;2023-01-20T07:28:52;1.97;;;1.23;;
19049;SDS011;9657;45.940;12.840;2023-01-20T07:31:20;2.90;;;1.83;;
19049;SDS011;9657;45.940;12.840;2023-01-20T07:33:50;1.10;;;1.00;;
19049;SDS011;9657;45.940;12.840;2023-01-20T07:36:17;3.73;;;1.93;;
19049;SDS011;9657;45.940;12.840;2023-01-20T07:38:45;1.90;;;1.67;;
19049;SDS011;9657;45.940;12.840;2023-01-20T07:41:13;2.83;;;1.87;;
19049;SDS011;9657;45.940;12.840;2023-01-20T07:43:42;3.47;;;1.57;;
19049;SDS011;9657;45.940;12.840;2023-01-20T07:46:09;2.40;;;1.50;;
19049;SDS011;9657;45.940;12.840;2023-01-20T07:48:37;1.67;;;1.57;;
19049;SDS011;9657;45.940;12.840;2023-01-20T07:51:06;3.90;;;1.57;;
19049;SDS011;9657;45.940;12.840;2023-01-20T07:53:35;1.93;;;1.70;;
19049;SDS011;9657;45.940;12.840;2023-01-20T07:56:04;2.13;;;1.50;;
19049;SDS011;9657;45.940;12.840;2023-01-20T07:58:32;2.10;;;1.60;;
19049;SDS011;9657;45.940;12.840;2023-01-20T08:01:04;1.93;;;1.83;;
19049;SDS011;9657;45.940;12.840;2023-01-20T08:03:33;2.43;;;1.93;;
19049;SDS011;9657;45.940;12.840;2023-01-20T08:06:00;2.50;;;1.83;;
19049;SDS011;9657;45.940;12.840;2023-01-20T08:08:30;2.60;;;1.90;;
19049;SDS011;9657;45.940;12.840;2023-01-20T08:10:57;2.67;;;2.20;;
19049;SDS011;9657;45.940;12.840;2023-01-20T08:13:25;2.27;;;2.07;;
19049;SDS011;9657;45.940;12.840;2023-01-20T08:15:52;3.67;;;2.30;;
19049;SDS011;9657;45.940;12.840;2023-01-20T08:18:19;3.93;;;2.23;;
19049;SDS011;9657;45.940;12.840;2023-01-20T08:20:46;4.10;;;2.43;;
19049;SDS011;9657;45.940;12.840;2023-01-20T08:23:13;2.47;;;2.10;;
19049;SDS011;9657;45.940;12.840;2023-01-20T08:25:42;4.23;;;2.27;;
19049;SDS011;9657;45.940;12.840;2023-01-20T08:28:09;4.17;;;2.00;;
19049;SDS011;9657;45.940;12.840;2023-01-20T08:30:36;2.87;;;2.10;;
19049;SDS011;9657;45.940;12.840;2023-01-20T08:33:03;3.67;;;2.20;;
19049;SDS011;9657;45.940;12.840;2023-01-20T08:35:30;2.60;;;1.90;;
19049;SDS011;9657;45.940;12.840;2023-01-20T08:37:57;5.33;;;1.93;;
19049;SDS011;9657;45.940;12.840;2023-01-20T08:40:24;3.53;;;1.90;;
19049;SDS011;9657;45.940;12.840;2023-01-20T08:42:52;3.57;;;2.20;;
19049;SDS011;9657;45.940;12.840;2023-01-20T08:45:19;2.50;;;1.80;;
19049;SDS011;9657;45.940;12.840;2023-01-20T08:47:46;3.03;;;1.90;;
19049;SDS011;9657;45.940;12.840;2023-01-20T08:50:14;4.27;;;2.50;;
19049;SDS011;9657;45.940;12.840;2023-01-20T08:52:41;2.70;;;2.07;;
19049;SDS011;9657;45.940;12.840;2023-01-20T08:55:08;3.33;;;2.40;;
19049;SDS011;9657;45.940;12.840;2023-01-20T08:57:36;5.13;;;2.90;;
19049;SDS011;9657;45.940;12.840;2023-01-20T09:00:05;3.13;;;2.40;;
19049;SDS011;9657;45.940;12.840;2023-01-20T09:02:35;3.13;;;2.20;;
19049;SDS011;9657;45.940;12.840;2023-01-20T09:05:03;2.60;;;2.10;;
19049;SDS011;9657;45.940;12.840;2023-01-20T09:07:32;5.07;;;2.63;;
19049;SDS011;9657;45.940;12.840;2023-01-20T09:10:00;3.17;;;2.13;;
19049;SDS011;9657;45.940;12.840;2023-01-20T09:12:27;3.87;;;2.47;;
19049;SDS011;9657;45.940;12.840;2023-01-20T09:14:54;3.20;;;2.23;;
19049;SDS011;9657;45.940;12.840;2023-01-20T09:17:22;2.77;;;2.37;;
19049;SDS011;9657;45.940;12.840;2023-01-20T09:19:49;3.63;;;2.53;;
19049;SDS011;9657;45.940;12.840;2023-01-20T09:22:16;3.27;;;2.20;;
19049;SDS011;9657;45.940;12.840;2023-01-20T09:24:43;4.00;;;2.30;;
19049;SDS011;9657;45.940;12.840;2023-01-20T09:27:10;4.37;;;2.30;;
19049;SDS011;9657;45.940;12.840;2023-01-20T09:29:37;6.33;;;2.40;;
19049;SDS011;9657;45.940;12.840;2023-01-20T09:32:04;3.77;;;2.60;;
19049;SDS011;9657;45.940;12.840;2023-01-20T09:34:33;3.77;;;2.97;;
19049;SDS011;9657;45.940;12.840;2023-01-20T09:37:00;6.13;;;2.40;;
19049;SDS011;9657;45.940;12.840;2023-01-20T09:39:42;4.57;;;2.43;;
19049;SDS011;9657;45.940;12.840;2023-01-20T09:42:27;3.70;;;3.00;;
19049;SDS011;9657;45.940;12.840;2023-01-20T09:45:20;6.07;;;2.87;;
19049;SDS011;9657;45.940;12.840;2023-01-20T09:47:53;3.50;;;2.97;;
19049;SDS011;9657;45.940;12.840;2023-01-20T09:50:32;4.23;;;2.50;;
19049;SDS011;9657;45.940;12.840;2023-01-20T09:53:28;2.93;;;2.23;;
19049;SDS011;9657;45.940;12.840;2023-01-20T09:56:07;4.87;;;3.00;;
19049;SDS011;9657;45.940;12.840;2023-01-20T09:58:41;3.53;;;2.90;;
19049;SDS011;9657;45.940;12.840;2023-01-20T10:01:16;4.87;;;2.70;;
19049;SDS011;9657;45.940;12.840;2023-01-20T10:03:49;4.50;;;2.53;;
19049;SDS011;9657;45.940;12.840;2023-01-20T10:06:22;3.50;;;2.40;;
19049;SDS011;9657;45.940;12.840;2023-01-20T10:08:54;3.57;;;2.87;;
19049;SDS011;9657;45.940;12.840;2023-01-20T10:11:24;4.40;;;2.90;;
19049;SDS011;9657;45.940;12.840;2023-01-20T10:13:55;5.33;;;2.60;;
19049;SDS011;9657;45.940;12.840;2023-01-20T10:16:32;5.63;;;2.63;;
19049;SDS011;9657;45.940;12.840;2023-01-20T10:19:07;4.50;;;2.70;;
19049;SDS011;9657;45.940;12.840;2023-01-20T10:21:40;4.63;;;3.10;;
19049;SDS011;9657;45.940;12.840;2023-01-20T10:24:14;2.93;;;2.60;;
19049;SDS011;9657;45.940;12.840;2023-01-20T10:26:48;3.13;;;2.70;;
19049;SDS011;9657;45.940;12.840;2023-01-20T10:29:19;3.37;;;2.53;;
19049;SDS011;9657;45.940;12.840;2023-01-20T10:31:56;2.73;;;2.53;;
19049;SDS011;9657;45.940;12.840;2023-01-20T10:34:26;2.47;;;2.27;;
19049;SDS011;9657;45.940;12.840;2023-01-20T10:37:02;3.30;;;2.80;;
19049;SDS011;9657;45.940;12.840;2023-01-20T10:39:34;3.47;;;2.27;;
19049;SDS011;9657;45.940;12.840;2023-01-20T10:42:09;4.10;;;2.77;;
19049;SDS011;9657;45.940;12.840;2023-01-20T10:44:38;5.50;;;2.70;;
19049;SDS011;9657;45.940;12.840;2023-01-20T10:47:13;3.77;;;2.47;;
19049;SDS011;9657;45.940;12.840;2023-01-20T10:49:49;2.57;;;2.37;;
19049;SDS011;9657;45.940;12.840;2023-01-20T10:52:46;3.30;;;2.60;;
19049;SDS011;9657;45.940;12.840;2023-01-20T10:55:32;3.63;;;2.67;;
19049;SDS011;9657;45.940;12.840;2023-01-20T10:58:08;6.97;;;2.90;;
19049;SDS011;9657;45.940;12.840;2023-01-20T11:00:43;3.37;;;2.30;;
19049;SDS011;9657;45.940;12.840;2023-01-20T11:03:11;5.13;;;2.40;;
19049;SDS011;9657;45.940;12.840;2023-01-20T11:05:40;4.80;;;2.77;;
19049;SDS011;9657;45.940;12.840;2023-01-20T11:08:13;7.83;;;2.63;;
19049;SDS011;9657;45.940;12.840;2023-01-20T11:10:42;5.17;;;2.50;;
19049;SDS011;9657;45.940;12.840;2023-01-20T11:13:09;4.73;;;3.00;;
19049;SDS011;9657;45.940;12.840;2023-01-20T11:15:37;4.17;;;2.53;;
19049;SDS011;9657;45.940;12.840;2023-01-20T11:18:18;6.67;;;3.17;;
19049;SDS011;9657;45.940;12.840;2023-01-20T11:20:47;6.53;;;3.37;;
19049;SDS011;9657;45.940;12.840;2023-01-20T11:23:22;9.43;;;4.07;;
19049;SDS011;9657;45.940;12.840;2023-01-20T11:25:52;10.43;;;3.63;;
19049;SDS011;9657;45.940;12.840;2023-01-20T11:28:20;11.57;;;3.50;;
19049;SDS011;9657;45.940;12.840;2023-01-20T11:30:49;8.80;;;3.40;;
19049;SDS011;9657;45.940;12.840;2023-01-20T11:33:19;13.43;;;4.30;;
19049;SDS011;9657;45.940;12.840;2023-01-20T11:36:01;14.00;;;4.23;;
19049;SDS011;9657;45.940;12.840;2023-01-20T11:38:31;10.80;;;3.60;;
19049;SDS011;9657;45.940;12.840;2023-01-20T11:41:16;10.57;;;4.40;;
19049;SDS011;9657;45.940;12.840;2023-01-20T11:43:44;18.60;;;4.83;;
19049;SDS011;9657;45.940;12.840;2023-01-20T11:46:12;17.27;;;5.90;;
19049;SDS011;9657;45.940;12.840;2023-01-20T11:48:47;17.80;;;5.10;;
19049;SDS011;9657;45.940;12.840;2023-01-20T11:51:19;14.27;;;5.37;;
19049;SDS011;9657;45.940;12.840;2023-01-20T11:53:51;16.10;;;6.23;;
19049;SDS011;9657;45.940;12.840;2023-01-20T11:56:36;20.10;;;5.37;;
19049;SDS011;9657;45.940;12.840;2023-01-20T11:59:15;19.90;;;5.63;;
19049;SDS011;9657;45.940;12.840;2023-01-20T12:01:49;19.43;;;5.40;;
19049;SDS011;9657;45.940;12.840;2023-01-20T12:04:22;15.90;;;5.47;;
19049;SDS011;9657;45.940;12.840;2023-01-20T12:07:08;26.87;;;6.50;;
19049;SDS011;9657;45.940;12.840;2023-01-20T12:09:40;23.63;;;6.33;;
19049;SDS011;9657;45.940;12.840;2023-01-20T12:12:11;17.73;;;5.97;;
19049;SDS011;9657;45.940;12.840;2023-01-20T12:14:46;24.90;;;6.90;;
19049;SDS011;9657;45.940;12.840;2023-01-20T12:17:17;22.87;;;5.87;;
19049;SDS011;9657;45.940;12.840;2023-01-20T12:20:02;19.50;;;6.30;;
19049;SDS011;9657;45.940;12.840;2023-01-20T12:22:37;21.80;;;6.43;;
19049;SDS011;9657;45.940;12.840;2023-01-20T12:25:14;22.50;;;6.57;;
19049;SDS011;9657;45.940;12.840;2023-01-20T12:27:46;28.83;;;7.37;;
19049;SDS011;9657;45.940;12.840;2023-01-20T12:33:13;21.27;;;6.80;;
19049;SDS011;9657;45.940;12.840;2023-01-20T12:35:47;27.53;;;7.73;;
19049;SDS011;9657;45.940;12.840;2023-01-20T12:38:34;22.57;;;7.07;;
19049;SDS011;9657;45.940;12.840;2023-01-20T12:41:21;26.00;;;7.77;;
19049;SDS011;9657;45.940;12.840;2023-01-20T12:43:59;26.80;;;8.07;;
19049;SDS011;9657;45.940;12.840;2023-01-20T12:46:34;30.07;;;7.03;;
19049;SDS011;9657;45.940;12.840;2023-01-20T12:49:15;29.77;;;6.97;;
19049;SDS011;9657;45.940;12.840;2023-01-20T12:52:01;17.07;;;5.80;;
19049;SDS011;9657;45.940;12.840;2023-01-20T12:54:49;19.23;;;5.87;;
19049;SDS011;9657;45.940;12.840;2023-01-20T12:57:36;26.83;;;6.33;;
19049;SDS011;9657;45.940;12.840;2023-01-20T13:00:15;26.93;;;7.30;;
19049;SDS011;9657;45.940;12.840;2023-01-20T13:02:57;22.80;;;6.27;;
19049;SDS011;9657;45.940;12.840;2023-01-20T13:05:50;25.93;;;7.27;;
19049;SDS011;9657;45.940;12.840;2023-01-20T13:08:35;22.17;;;6.70;;
19049;SDS011;9657;45.940;12.840;2023-01-20T13:11:14;34.30;;;8.87;;
19049;SDS011;9657;45.940;12.840;2023-01-20T13:13:52;28.57;;;8.13;;
19049;SDS011;9657;45.940;12.840;2023-01-20T13:16:30;34.37;;;7.13;;
19049;SDS011;9657;45.940;12.840;2023-01-20T13:19:02;32.27;;;7.40;;
19049;SDS011;9657;45.940;12.840;2023-01-20T13:21:35;22.53;;;6.60;;
19049;SDS011;9657;45.940;12.840;2023-01-20T13:24:05;24.93;;;6.13;;
19049;SDS011;9657;45.940;12.840;2023-01-20T13:26:42;29.73;;;7.53;;
19049;SDS011;9657;45.940;12.840;2023-01-20T13:29:20;23.57;;;7.17;;
19049;SDS011;9657;45.940;12.840;2023-01-20T13:32:16;27.93;;;8.20;;
19049;SDS011;9657;45.940;12.840;2023-01-20T13:34:55;38.43;;;8.63;;
19049;SDS011;9657;45.940;12.840;2023-01-20T13:37:26;24.63;;;6.80;;
19049;SDS011;9657;45.940;12.840;2023-01-20T13:39:58;30.27;;;6.83;;
19049;SDS011;9657;45.940;12.840;2023-01-20T13:42:27;27.60;;;7.00;;
19049;SDS011;9657;45.940;12.840;2023-01-20T13:45:19;35.50;;;9.17;;
19049;SDS011;9657;45.940;12.840;2023-01-20T13:48:01;17.67;;;6.67;;
19049;SDS011;9657;45.940;12.840;2023-01-20T13:50:47;23.10;;;7.03;;
19049;SDS011;9657;45.940;12.840;2023-01-20T13:53:28;26.47;;;7.13;;
19049;SDS011;9657;45.940;12.840;2023-01-20T13:55:58;27.47;;;8.30;;
19049;SDS011;9657;45.940;12.840;2023-01-20T13:58:27;22.33;;;8.60;;
19049;SDS011;9657;45.940;12.840;2023-01-20T14:00:57;27.63;;;8.67;;
19049;SDS011;9657;45.940;12.840;2023-01-20T14:03:26;22.73;;;8.17;;
19049;SDS011;9657;45.940;12.840;2023-01-20T14:05:55;19.77;;;6.87;;
19049;SDS011;9657;45.940;12.840;2023-01-20T14:08:24;26.77;;;8.40;;
19049;SDS011;9657;45.940;12.840;2023-01-20T14:11:02;21.87;;;8.07;;
19049;SDS011;9657;45.940;12.840;2023-01-20T14:13:32;23.77;;;6.90;;
19049;SDS011;9657;45.940;12.840;2023-01-20T14:16:01;24.37;;;6.80;;
19049;SDS011;9657;45.940;12.840;2023-01-20T14:18:28;23.23;;;8.43;;
19049;SDS011;9657;45.940;12.840;2023-01-20T14:21:00;18.70;;;6.23;;
19049;SDS011;9657;45.940;12.840;2023-01-20T14:23:31;27.53;;;7.23;;
19049;SDS011;9657;45.940;12.840;2023-01-20T14:26:04;22.47;;;6.93;;
19049;SDS011;9657;45.940;12.840;2023-01-20T14:28:39;27.07;;;7.00;;
19049;SDS011;9657;45.940;12.840;2023-01-20T14:31:14;21.87;;;7.03;;
19049;SDS011;9657;45.940;12.840;2023-01-20T14:33:55;23.43;;;6.93;;
19049;SDS011;9657;45.940;12.840;2023-01-20T14:36:24;23.03;;;7.67;;
19049;SDS011;9657;45.940;12.840;2023-01-20T14:38:55;20.83;;;6.73;;
19049;SDS011;9657;45.940;12.840;2023-01-20T14:41:25;25.10;;;6.27;;
19049;SDS011;9657;45.940;12.840;2023-01-20T14:43:53;18.13;;;6.43;;
19049;SDS011;9657;45.940;12.840;2023-01-20T14:46:22;20.40;;;6.73;;
19049;SDS011;9657;45.940;12.840;2023-01-20T14:48:50;19.60;;;5.63;;
19049;SDS011;9657;45.940;12.840;2023-01-20T14:51:18;20.43;;;7.10;;
19049;SDS011;9657;45.940;12.840;2023-01-20T14:53:45;11.50;;;5.40;;
19049;SDS011;9657;45.940;12.840;2023-01-20T14:56:17;23.17;;;5.73;;
19049;SDS011;9657;45.940;12.840;2023-01-20T14:58:45;20.80;;;5.93;;
19049;SDS011;9657;45.940;12.840;2023-01-20T15:01:19;20.73;;;6.57;;
19049;SDS011;9657;45.940;12.840;2023-01-20T15:03:53;19.87;;;6.67;;
19049;SDS011;9657;45.940;12.840;2023-01-20T15:06:22;18.33;;;6.33;;
19049;SDS011;9657;45.940;12.840;2023-01-20T15:08:50;20.17;;;5.93;;
19049;SDS011;9657;45.940;12.840;2023-01-20T15:11:20;15.63;;;5.43;;
19049;SDS011;9657;45.940;12.840;2023-01-20T15:14:04;16.00;;;5.73;;
19049;SDS011;9657;45.940;12.840;2023-01-20T15:16:41;13.40;;;5.27;;